createdAt,value
2023-02-01T00:01:01.085Z,98492.59
2023-02-01T00:03:32.356Z,98490.00
2023-02-01T00:06:12.085Z,98465.28
2023-02-01T00:08:41.280Z,98488.34
2023-02-01T00:11:12.409Z,98496.84
2023-02-01T00:13:52.167Z,98490.03
2023-02-01T00:19:04.580Z,98497.69
2023-02-01T00:21:39.857Z,98499.41
2023-02-01T00:24:09.917Z,98496.88
2023-02-01T00:29:23.636Z,98504.50
2023-02-01T00:31:53.943Z,98503.66
2023-02-01T00:34:25.276Z,98498.56
2023-02-01T00:36:54.773Z,98507.06
2023-02-01T00:39:29.403Z,98486.63
2023-02-01T00:41:58.612Z,98501.94
2023-02-01T00:44:35.053Z,98501.13
2023-02-01T00:47:09.288Z,98500.28
2023-02-01T00:49:40.497Z,98502.00
2023-02-01T00:52:09.658Z,98501.19
2023-02-01T00:54:38.884Z,98502.91
2023-02-01T00:57:13.928Z,98508.84
2023-02-01T00:59:48.074Z,98482.44
2023-02-01T01:02:17.314Z,98448.34
2023-02-01T01:04:48.640Z,98500.34
2023-02-01T01:07:22.955Z,98499.47
2023-02-01T01:09:52.338Z,98496.88
2023-02-01T01:12:21.546Z,98485.00
2023-02-01T01:14:51.236Z,98507.13
2023-02-01T01:17:21.477Z,98507.97
2023-02-01T01:19:59.861Z,98502.00
2023-02-01T01:22:29.876Z,98496.06
2023-02-01T01:24:59.473Z,98519.91
2023-02-01T01:27:28.700Z,98514.75
2023-02-01T01:29:57.806Z,98519.91
2023-02-01T01:32:27.121Z,98506.31
2023-02-01T01:34:58.280Z,98510.56
2023-02-01T01:37:27.462Z,98508.00
2023-02-01T01:39:57.285Z,98498.63
2023-02-01T01:42:26.747Z,98513.09
2023-02-01T01:45:05.010Z,98518.16
2023-02-01T01:47:50.054Z,98518.16
2023-02-01T01:50:32.271Z,98515.63
2023-02-01T01:53:05.340Z,98460.25
2023-02-01T01:58:22.591Z,98514.72
2023-02-01T02:00:52.014Z,98524.06
2023-02-01T02:03:23.745Z,98522.34
2023-02-01T02:06:08.379Z,98516.41
2023-02-01T02:08:37.647Z,98514.72
2023-02-01T02:11:11.046Z,98514.72
2023-02-01T02:13:44.319Z,98520.66
2023-02-01T02:17:00.191Z,98519.84
2023-02-01T02:19:56.276Z,98524.94
2023-02-01T02:22:57.505Z,98527.50
2023-02-01T02:25:51.971Z,98532.66
2023-02-01T02:28:49.419Z,98533.50
2023-02-01T02:31:32.811Z,98535.16
2023-02-01T02:34:14.568Z,98540.28
2023-02-01T02:36:53.347Z,98537.75
2023-02-01T02:39:33.928Z,98538.59
2023-02-01T02:42:24.734Z,98538.59
2023-02-01T02:45:18.969Z,98536.88
2023-02-01T02:47:57.855Z,98541.13
2023-02-01T02:53:57.048Z,98534.25
2023-02-01T02:56:42.055Z,98537.66
2023-02-01T02:59:27.160Z,98542.69
2023-02-01T03:02:15.000Z,98543.50
2023-02-01T03:04:45.591Z,98539.19
2023-02-01T03:07:38.305Z,98549.34
2023-02-01T03:10:12.947Z,98541.72
2023-02-01T03:13:02.621Z,98550.19
2023-02-01T03:15:38.863Z,98539.19
2023-02-01T03:18:14.846Z,98539.19
2023-02-01T03:20:47.648Z,98514.50
2023-02-01T03:23:21.618Z,98544.41
2023-02-01T03:25:53.633Z,98521.34
2023-02-01T03:28:27.654Z,98546.03
2023-02-01T03:30:57.900Z,98551.91
2023-02-01T03:33:30.752Z,98555.28
2023-02-01T03:36:10.500Z,98551.06
2023-02-01T03:38:48.170Z,98543.47
2023-02-01T03:41:25.850Z,98549.44
2023-02-01T03:44:12.143Z,98541.78
2023-02-01T03:46:45.284Z,98545.09
2023-02-01T03:49:28.170Z,98541.69
2023-02-01T03:51:59.554Z,98553.63
2023-02-01T03:54:31.969Z,98554.50
2023-02-01T03:57:09.616Z,98554.53
2023-02-01T03:59:42.074Z,98547.78
2023-02-01T04:02:11.615Z,98540.13
2023-02-01T04:04:40.900Z,98552.06
2023-02-01T04:07:17.600Z,98565.69
2023-02-01T04:09:48.724Z,98560.56
2023-02-01T04:12:17.922Z,98566.47
2023-02-01T04:14:47.072Z,98582.59
2023-02-01T04:17:16.147Z,98565.47
2023-02-01T04:19:50.252Z,98587.63
2023-02-01T04:22:19.610Z,98591.91
2023-02-01T04:24:50.769Z,98591.94
2023-02-01T04:27:26.475Z,98591.13
2023-02-01T04:30:01.185Z,98586.94
2023-02-01T04:32:30.310Z,98590.34
2023-02-01T04:34:59.444Z,98597.97
2023-02-01T04:37:29.799Z,98607.31
2023-02-01T04:40:01.269Z,98609.88
2023-02-01T04:42:30.753Z,98607.25
2023-02-01T04:44:59.776Z,98608.97
2023-02-01T04:47:34.098Z,98611.53
2023-02-01T04:50:03.384Z,98615.00
2023-02-01T04:52:32.464Z,98620.94
2023-02-01T04:55:07.626Z,98619.28
2023-02-01T04:57:41.806Z,98615.84
2023-02-01T05:00:13.767Z,98626.06
2023-02-01T05:02:42.880Z,98628.63
2023-02-01T05:05:12.278Z,98628.59
2023-02-01T05:07:41.579Z,98633.72
2023-02-01T05:10:13.508Z,98632.06
2023-02-01T05:12:55.584Z,98641.44
2023-02-01T05:15:24.712Z,98640.59
2023-02-01T05:17:53.782Z,98644.81
2023-02-01T05:20:23.276Z,98641.41
2023-02-01T05:22:52.875Z,98648.19
2023-02-01T05:25:24.376Z,98647.34
2023-02-01T05:27:53.580Z,98651.59
2023-02-01T05:30:23.272Z,98648.16
2023-02-01T05:32:53.601Z,98643.97
2023-02-01T05:35:23.154Z,98643.06
2023-02-01T05:37:52.171Z,98620.03
2023-02-01T05:40:28.512Z,98632.81
2023-02-01T05:42:57.606Z,98641.25
2023-02-01T05:45:26.713Z,98642.06
2023-02-01T05:48:01.952Z,98637.00
2023-02-01T05:50:31.068Z,98649.84
2023-02-01T05:53:00.982Z,98650.72
2023-02-01T05:55:31.995Z,98652.44
2023-02-01T05:58:08.891Z,98643.91
2023-02-01T06:00:38.147Z,98648.16
2023-02-01T06:03:08.055Z,98651.53
2023-02-01T06:05:37.545Z,98656.66
2023-02-01T06:08:13.021Z,98650.69
2023-02-01T06:10:44.090Z,98656.72
2023-02-01T06:13:15.940Z,98641.34
2023-02-01T06:15:45.572Z,98664.44
2023-02-01T06:18:16.193Z,98666.03
2023-02-01T06:20:50.529Z,98664.25
2023-02-01T06:23:19.770Z,98665.13
2023-02-01T06:25:50.860Z,98671.94
2023-02-01T06:28:25.066Z,98657.41
2023-02-01T06:30:54.425Z,98679.66
2023-02-01T06:33:24.349Z,98680.53
2023-02-01T06:36:01.610Z,98677.13
2023-02-01T06:38:30.868Z,98681.34
2023-02-01T06:41:02.909Z,98691.50
2023-02-01T06:43:33.189Z,98694.09
2023-02-01T06:46:03.672Z,98693.25
2023-02-01T06:48:33.092Z,98689.06
2023-02-01T06:51:02.197Z,98684.81
2023-02-01T06:53:36.616Z,98685.63
2023-02-01T06:56:13.323Z,98688.22
2023-02-01T06:58:47.559Z,98674.63
2023-02-01T07:01:17.033Z,98686.63
2023-02-01T07:03:53.568Z,98685.78
2023-02-01T07:06:22.757Z,98686.63
2023-02-01T07:08:52.013Z,98687.50
2023-02-01T07:11:28.199Z,98691.75
2023-02-01T07:13:57.469Z,98688.41
2023-02-01T07:16:26.703Z,98654.34
2023-02-01T07:19:01.179Z,98676.50
2023-02-01T07:21:30.736Z,98691.00
2023-02-01T07:24:05.196Z,98672.25
2023-02-01T07:26:36.245Z,98700.34
2023-02-01T07:29:05.623Z,98705.44
2023-02-01T07:31:34.781Z,98701.16
2023-02-01T07:34:04.242Z,98703.69
2023-02-01T07:36:34.917Z,98710.50
2023-02-01T07:39:09.252Z,98713.06
2023-02-01T07:41:41.182Z,98709.69
2023-02-01T07:44:24.718Z,98709.69
2023-02-01T07:46:54.008Z,98689.25
2023-02-01T07:49:23.261Z,98704.63
2023-02-01T07:51:52.880Z,98685.84
2023-02-01T07:54:22.276Z,98702.16
2023-02-01T07:56:58.711Z,98681.75
2023-02-01T07:59:28.112Z,98707.34
2023-02-01T08:01:55.244Z,98699.66
2023-02-01T08:04:24.358Z,98705.66
2023-02-01T08:06:53.440Z,98703.13
2023-02-01T08:09:23.023Z,98702.25
2023-02-01T08:11:52.146Z,98705.59
2023-02-01T08:14:23.251Z,98690.28
2023-02-01T08:16:52.529Z,98688.63
2023-02-01T08:19:21.636Z,98683.53
2023-02-01T08:21:50.962Z,98694.69
2023-02-01T08:24:20.020Z,98697.25
2023-02-01T08:26:49.773Z,98684.47
2023-02-01T08:29:19.377Z,98684.50
2023-02-01T08:31:51.275Z,98695.59
2023-02-01T08:34:20.508Z,98675.16
2023-02-01T08:36:49.645Z,98698.19
2023-02-01T08:39:18.700Z,98693.13
2023-02-01T08:42:09.404Z,98649.66
2023-02-01T08:44:39.156Z,98681.19
2023-02-01T08:47:10.215Z,98685.47
2023-02-01T08:49:39.323Z,98690.59
2023-02-01T08:52:15.760Z,98692.28
2023-02-01T08:54:45.969Z,98688.88
2023-02-01T08:57:15.426Z,98692.28
2023-02-01T08:59:44.915Z,98696.53
2023-02-01T09:02:19.508Z,98689.75
2023-02-01T09:04:48.794Z,98673.53
2023-02-01T09:07:18.326Z,98688.00
2023-02-01T09:09:47.955Z,98673.50
2023-02-01T09:12:17.907Z,98668.38
2023-02-01T09:14:47.109Z,98660.72
2023-02-01T09:17:16.429Z,98692.22
2023-02-01T09:19:47.649Z,98682.84
2023-02-01T09:24:57.926Z,98691.34
2023-02-01T09:27:27.060Z,98685.41
2023-02-01T09:29:56.299Z,98676.88
2023-02-01T09:32:26.743Z,98685.38
2023-02-01T09:34:57.881Z,98690.50
2023-02-01T09:37:27.527Z,98687.94
2023-02-01T09:39:56.685Z,98689.63
2023-02-01T09:42:55.892Z,98685.38
2023-02-01T09:45:34.011Z,98686.22
2023-02-01T09:48:12.974Z,98678.53
2023-02-01T09:50:48.461Z,98687.03
2023-02-01T09:53:24.536Z,98680.28
2023-02-01T09:55:57.373Z,98674.41
2023-02-01T09:58:33.396Z,98678.69
2023-02-01T10:01:05.772Z,98675.25
2023-02-01T10:03:40.843Z,98682.03
2023-02-01T10:06:30.257Z,98645.31
2023-02-01T10:09:31.389Z,98668.34
2023-02-01T10:12:30.809Z,98658.13
2023-02-01T10:15:14.381Z,98662.44
2023-02-01T10:17:57.272Z,98652.22
2023-02-01T10:20:32.734Z,98653.09
2023-02-01T10:23:31.513Z,98661.63
2023-02-01T10:26:07.879Z,98656.53
2023-02-01T10:28:46.634Z,98655.66
2023-02-01T10:31:16.339Z,98657.38
2023-02-01T10:33:49.620Z,98658.25
2023-02-01T10:36:23.041Z,98638.66
2023-02-01T10:38:54.272Z,98658.22
2023-02-01T10:41:25.790Z,98648.00
2023-02-01T10:43:57.881Z,98658.25
2023-02-01T10:46:33.228Z,98656.53
2023-02-01T10:49:07.035Z,98642.88
2023-02-01T10:51:44.957Z,98655.66
2023-02-01T10:54:21.041Z,98658.19
2023-02-01T10:56:53.012Z,98658.19
2023-02-01T10:59:22.751Z,98656.53
2023-02-01T11:01:59.522Z,98648.00
2023-02-01T11:04:32.079Z,98656.53
2023-02-01T11:07:10.231Z,98664.16
2023-02-01T11:09:52.355Z,98666.72
2023-02-01T11:12:30.915Z,98652.19
2023-02-01T11:15:04.082Z,98646.22
2023-02-01T11:17:43.313Z,98661.53
2023-02-01T11:20:18.094Z,98630.88
2023-02-01T11:23:01.070Z,98658.13
2023-02-01T11:25:34.268Z,98648.75
2023-02-01T11:28:04.471Z,98662.31
2023-02-01T11:30:37.767Z,98641.84
2023-02-01T11:33:17.980Z,98632.50
2023-02-01T11:35:49.580Z,98670.00
2023-02-01T11:38:30.765Z,98664.06
2023-02-01T11:41:16.166Z,98667.44
2023-02-01T11:43:57.048Z,98670.00
2023-02-01T11:46:32.301Z,98651.31
2023-02-01T11:49:27.497Z,98670.97
2023-02-01T11:52:13.289Z,98674.34
2023-02-01T11:54:59.978Z,98665.78
2023-02-01T11:57:47.793Z,98670.91
2023-02-01T12:00:47.209Z,98666.63
2023-02-01T12:03:50.355Z,98679.44
2023-02-01T12:06:31.590Z,98680.28
2023-02-01T12:09:18.463Z,98687.03
2023-02-01T12:11:56.777Z,98690.41
2023-02-01T12:14:50.940Z,98684.47
2023-02-01T12:17:45.286Z,98688.69
2023-02-01T12:20:30.683Z,98662.19
2023-02-01T12:23:23.929Z,98707.34
2023-02-01T12:26:11.659Z,98706.41
2023-02-01T12:29:11.729Z,98706.34
2023-02-01T12:32:19.397Z,98701.25
2023-02-01T12:35:04.747Z,98710.47
2023-02-01T12:37:56.682Z,98687.41
2023-02-01T12:40:44.413Z,98717.31
2023-02-01T12:43:25.973Z,98703.69
2023-02-01T12:45:59.999Z,98705.47
2023-02-01T12:53:55.628Z,98721.44
2023-02-01T12:56:29.436Z,98715.41
2023-02-01T12:59:04.481Z,98689.72
2023-02-01T13:01:38.374Z,98722.19
2023-02-01T13:04:15.284Z,98729.00
2023-02-01T13:06:55.257Z,98722.22
2023-02-01T13:09:37.786Z,98719.69
2023-02-01T13:12:13.245Z,98712.88
2023-02-01T13:14:53.637Z,98710.34
2023-02-01T13:20:06.376Z,98719.81
2023-02-01T13:22:41.766Z,98704.38
2023-02-01T13:25:17.811Z,98715.44
2023-02-01T13:27:48.516Z,98716.22
2023-02-01T13:30:24.118Z,98706.00
2023-02-01T13:33:54.643Z,98719.66
2023-02-01T13:36:42.295Z,98722.97
2023-02-01T13:39:43.195Z,98715.16
2023-02-01T13:42:21.708Z,98724.50
2023-02-01T13:44:55.189Z,98722.81
2023-02-01T13:47:33.145Z,98715.97
2023-02-01T13:50:05.916Z,98721.97
2023-02-01T13:52:47.513Z,98727.09
2023-02-01T13:55:33.735Z,98729.66
2023-02-01T13:58:22.564Z,98724.53
2023-02-01T14:00:53.724Z,98727.91
2023-02-01T14:03:51.873Z,98715.09
2023-02-01T14:06:47.190Z,98700.56
2023-02-01T14:09:22.205Z,98737.13
2023-02-01T14:11:54.087Z,98726.84
2023-02-01T14:14:50.953Z,98730.16
2023-02-01T14:17:43.107Z,98725.88
2023-02-01T14:21:01.962Z,98725.91
2023-02-01T14:23:33.633Z,98734.44
2023-02-01T14:26:20.532Z,98718.13
2023-02-01T14:29:01.046Z,98733.63
2023-02-01T14:31:58.105Z,98734.38
2023-02-01T14:34:38.283Z,98736.09
2023-02-01T14:37:15.755Z,98753.13
2023-02-01T14:40:03.823Z,98752.31
2023-02-01T14:42:41.916Z,98683.16
2023-02-01T14:45:43.975Z,98745.50
2023-02-01T14:48:47.927Z,98743.81
2023-02-01T14:51:32.055Z,98750.59
2023-02-01T14:54:01.439Z,98754.03
2023-02-01T14:56:31.011Z,98752.31
2023-02-01T14:59:05.608Z,98753.16
2023-02-01T15:01:38.265Z,98755.72
2023-02-01T15:04:11.781Z,98754.81
2023-02-01T15:06:45.308Z,98718.06
2023-02-01T15:09:30.601Z,98755.63
2023-02-01T15:12:02.523Z,98758.81
2023-02-01T15:14:39.237Z,98751.06
2023-02-01T15:17:22.082Z,98758.84
2023-02-01T15:19:58.117Z,98760.53
2023-02-01T15:22:35.464Z,98753.72
2023-02-01T15:25:06.785Z,98769.84
2023-02-01T15:27:36.429Z,98764.78
2023-02-01T15:30:19.335Z,98772.50
2023-02-01T15:32:48.873Z,98778.41
2023-02-01T15:35:36.890Z,98775.84
2023-02-01T15:38:24.503Z,98769.09
2023-02-01T15:43:38.227Z,98758.75
2023-02-01T15:46:15.406Z,98780.00
2023-02-01T15:48:50.781Z,98758.63
2023-02-01T15:51:23.345Z,98781.66
2023-02-01T15:54:00.606Z,98753.53
2023-02-01T15:56:33.050Z,98778.44
2023-02-01T15:59:05.042Z,98776.81
2023-02-01T16:01:41.683Z,98782.91
2023-02-01T16:04:19.951Z,98781.00
2023-02-01T16:06:51.632Z,98776.69
2023-02-01T16:09:24.986Z,98778.25
2023-02-01T16:11:59.256Z,98785.00
2023-02-01T16:14:29.214Z,98786.63
2023-02-01T16:17:05.839Z,98786.59
2023-02-01T16:19:35.415Z,98784.09
2023-02-01T16:22:04.753Z,98787.56
2023-02-01T16:24:40.861Z,98788.50
2023-02-01T16:27:09.980Z,98781.69
2023-02-01T16:29:39.757Z,98789.41
2023-02-01T16:32:15.630Z,98791.94
2023-02-01T16:34:50.718Z,98790.09
2023-02-01T16:37:23.902Z,98796.84
2023-02-01T16:39:55.059Z,98796.78
2023-02-01T16:42:31.555Z,98774.47
2023-02-01T16:45:06.540Z,98794.97
2023-02-01T16:47:36.906Z,98801.81
2023-02-01T16:50:17.496Z,98814.50
2023-02-01T16:52:51.824Z,98812.75
2023-02-01T16:55:29.770Z,98812.75
2023-02-01T16:57:59.286Z,98808.50
2023-02-01T17:00:31.563Z,98811.19
2023-02-01T17:03:01.251Z,98801.84
2023-02-01T17:05:36.894Z,98807.81
2023-02-01T17:08:10.706Z,98804.38
2023-02-01T17:10:41.918Z,98807.91
2023-02-01T17:13:15.782Z,98803.66
2023-02-01T17:15:56.333Z,98745.50
2023-02-01T17:18:25.995Z,98791.66
2023-02-01T17:20:55.174Z,98787.38
2023-02-01T17:23:24.531Z,98809.50
2023-02-01T17:25:55.659Z,98808.66
2023-02-01T17:28:28.742Z,98803.44
2023-02-01T17:33:39.494Z,98812.63
2023-02-01T17:36:09.451Z,98813.47
2023-02-01T17:38:41.023Z,98814.41
2023-02-01T17:41:15.208Z,98813.56
2023-02-01T17:43:50.440Z,98811.91
2023-02-01T17:46:20.719Z,98811.94
2023-02-01T17:48:49.961Z,98808.47
2023-02-01T17:51:20.607Z,98802.63
2023-02-01T17:53:55.139Z,98814.47
2023-02-01T17:56:27.655Z,98810.22
2023-02-01T17:58:58.234Z,98816.06
2023-02-01T18:01:29.517Z,98795.56
2023-02-01T18:04:03.956Z,98807.53
2023-02-01T18:06:41.827Z,98774.31
2023-02-01T18:09:11.165Z,98798.28
2023-02-01T18:11:42.360Z,98796.66
2023-02-01T18:14:16.741Z,98789.84
2023-02-01T18:16:45.885Z,98794.94
2023-02-01T18:19:16.256Z,98774.47
2023-02-01T18:21:46.816Z,98784.72
2023-02-01T18:24:18.248Z,98792.41
2023-02-01T18:26:59.534Z,98789.81
2023-02-01T18:29:28.857Z,98782.13
2023-02-01T18:31:58.460Z,98795.63
2023-02-01T18:34:32.695Z,98795.53
2023-02-01T18:37:02.286Z,98740.78
2023-02-01T18:39:31.493Z,98780.09
2023-02-01T18:42:02.660Z,98793.78
2023-02-01T18:44:34.812Z,98790.28
2023-02-01T18:47:04.177Z,98799.72
2023-02-01T18:49:33.283Z,98792.00
2023-02-01T18:52:02.530Z,98796.25
2023-02-01T18:54:32.014Z,98794.44
2023-02-01T18:57:09.031Z,98779.94
2023-02-01T18:59:43.332Z,98795.38
2023-02-01T19:02:14.687Z,98782.66
2023-02-01T19:04:44.368Z,98788.72
2023-02-01T19:07:18.769Z,98792.22
2023-02-01T19:09:48.281Z,98794.84
2023-02-01T19:12:20.009Z,98796.63
2023-02-01T19:14:54.314Z,98790.53
2023-02-01T19:17:24.043Z,98806.63
2023-02-01T19:19:53.717Z,98804.00
2023-02-01T19:22:22.977Z,98806.53
2023-02-01T19:24:54.470Z,98804.03
2023-02-01T19:30:13.725Z,98803.16
2023-02-01T19:32:48.089Z,98777.34
2023-02-01T19:35:25.347Z,98808.09
2023-02-01T19:38:01.255Z,98808.75
2023-02-01T19:40:30.757Z,98799.97
2023-02-01T19:45:43.087Z,98784.69
2023-02-01T19:48:12.814Z,98806.72
2023-02-01T19:50:42.404Z,98812.72
2023-02-01T19:53:12.022Z,98813.63
2023-02-01T19:55:45.507Z,98815.22
2023-02-01T19:58:16.792Z,98803.28
2023-02-01T20:00:45.273Z,98791.38
2023-02-01T20:03:14.392Z,98815.34
2023-02-01T20:05:43.688Z,98817.75
2023-02-01T20:10:48.204Z,98810.06
2023-02-01T20:13:20.042Z,98818.66
2023-02-01T20:15:49.054Z,98811.16
2023-02-01T20:18:18.173Z,98813.50
2023-02-01T20:20:47.407Z,98808.38
2023-02-01T20:23:18.230Z,98780.13
2023-02-01T20:25:48.249Z,98816.00
2023-02-01T20:28:24.491Z,98813.44
2023-02-01T20:30:54.629Z,98822.78
2023-02-01T20:33:25.286Z,98821.81
2023-02-01T20:35:54.476Z,98825.19
2023-02-01T20:38:23.651Z,98812.31
2023-02-01T20:40:52.899Z,98825.81
2023-02-01T20:43:23.895Z,98814.75
2023-02-01T20:45:58.402Z,98820.03
2023-02-01T20:48:28.788Z,98820.06
2023-02-01T20:50:58.553Z,98823.34
2023-02-01T20:53:28.290Z,98817.25
2023-02-01T20:55:59.106Z,98818.03
2023-02-01T20:58:31.326Z,98814.63
2023-02-01T21:01:00.622Z,98807.88
2023-02-01T21:03:30.248Z,98771.19
2023-02-01T21:06:01.182Z,98815.13
2023-02-01T21:08:35.931Z,98817.69
2023-02-01T21:11:07.537Z,98750.16
2023-02-01T21:13:43.546Z,98814.34
2023-02-01T21:16:15.342Z,98802.31
2023-02-01T21:18:44.545Z,98801.44
2023-02-01T21:21:18.405Z,98798.88
2023-02-01T21:23:48.378Z,98814.25
2023-02-01T21:26:21.315Z,98780.97
2023-02-01T21:28:54.086Z,98812.75
2023-02-01T21:31:25.361Z,98807.59
2023-02-01T21:33:54.816Z,98803.41
2023-02-01T21:36:24.648Z,98812.00
2023-02-01T21:39:01.167Z,98779.47
2023-02-01T21:41:48.456Z,98806.81
2023-02-01T21:44:19.970Z,98811.88
2023-02-01T21:46:49.357Z,98810.19
2023-02-01T21:49:18.487Z,98806.81
2023-02-01T21:51:50.095Z,98807.69
2023-02-01T21:54:23.596Z,98810.22
2023-02-01T21:56:52.839Z,98815.38
2023-02-01T21:59:23.941Z,98817.81
2023-02-01T22:04:27.693Z,98813.56
2023-02-01T22:06:56.823Z,98822.78
2023-02-01T22:09:31.075Z,98769.91
2023-02-01T22:12:00.152Z,98811.84
2023-02-01T22:14:33.237Z,98808.50
2023-02-01T22:17:02.529Z,98817.06
2023-02-01T22:19:42.006Z,98811.09
2023-02-01T22:22:12.557Z,98815.38
2023-02-01T22:24:41.667Z,98812.75
2023-02-01T22:27:14.391Z,98800.78
2023-02-01T22:29:58.234Z,98803.28
2023-02-01T22:32:27.410Z,98806.00
2023-02-01T22:34:59.148Z,98811.06
2023-02-01T22:37:28.458Z,98794.84
2023-02-01T22:39:57.763Z,98798.31
2023-02-01T22:42:27.097Z,98811.91
2023-02-01T22:45:04.138Z,98805.06
2023-02-01T22:47:33.586Z,98805.09
2023-02-01T22:50:02.767Z,98813.47
2023-02-01T22:52:37.125Z,98802.47
2023-02-01T22:55:07.083Z,98805.97
2023-02-01T22:57:36.221Z,98806.88
2023-02-01T23:00:10.053Z,98806.09
2023-02-01T23:02:39.453Z,98804.38
2023-02-01T23:05:09.094Z,98811.19
2023-02-01T23:07:38.225Z,98806.91
2023-02-01T23:10:16.285Z,98812.84
2023-02-01T23:15:22.966Z,98799.31
2023-02-01T23:17:52.382Z,98798.47
2023-02-01T23:20:27.731Z,98806.88
2023-02-01T23:22:57.107Z,98807.69
2023-02-01T23:25:26.748Z,98805.13
2023-02-01T23:28:01.817Z,98798.38
2023-02-01T23:30:33.057Z,98804.34
2023-02-01T23:33:02.318Z,98815.50
2023-02-01T23:35:31.410Z,98813.84
2023-02-01T23:38:00.483Z,98804.41
2023-02-01T23:40:29.646Z,98791.56
2023-02-01T23:43:11.576Z,98813.75
2023-02-01T23:45:47.677Z,98810.38
2023-02-01T23:48:16.980Z,98810.44
2023-02-01T23:50:46.083Z,98805.25
2023-02-01T23:53:15.225Z,98806.09
2023-02-01T23:55:49.233Z,98801.81
2023-02-01T23:58:18.385Z,98792.41
